createdAt,value
2019-04-06T00:02:19.686Z,11.60
2019-04-06T00:04:48.914Z,11.60
2019-04-06T00:07:18.276Z,11.60
2019-04-06T00:09:47.570Z,11.60
2019-04-06T00:12:17.143Z,11.60
2019-04-06T00:14:46.526Z,11.70
2019-04-06T00:17:16.070Z,11.70
2019-04-06T00:19:45.521Z,11.70
2019-04-06T00:22:14.901Z,11.70
2019-04-06T00:24:44.323Z,11.70
2019-04-06T00:27:13.911Z,11.80
2019-04-06T00:29:43.427Z,11.80
2019-04-06T00:32:33.738Z,11.80
2019-04-06T00:35:03.419Z,11.80
2019-04-06T00:37:32.745Z,11.80
2019-04-06T00:40:05.453Z,11.80
2019-04-06T00:42:34.885Z,11.90
2019-04-06T00:45:04.573Z,11.90
2019-04-06T00:47:34.042Z,11.90
2019-04-06T00:50:03.659Z,11.90
2019-04-06T00:52:33.009Z,11.90
2019-04-06T00:55:02.276Z,11.90
2019-04-06T00:57:31.864Z,12.00
2019-04-06T01:00:01.221Z,12.00
2019-04-06T01:02:30.926Z,12.00
2019-04-06T01:05:00.233Z,12.00
2019-04-06T01:07:29.779Z,12.00
2019-04-06T01:09:59.302Z,12.00
2019-04-06T01:12:29.052Z,12.00
2019-04-06T01:14:58.549Z,12.00
2019-04-06T01:17:27.870Z,12.00
2019-04-06T01:19:57.121Z,12.00
2019-04-06T01:22:26.539Z,12.00
2019-04-06T01:24:55.809Z,12.00
2019-04-06T01:27:25.518Z,12.00
2019-04-06T01:29:54.935Z,12.00
2019-04-06T01:32:24.300Z,12.00
2019-04-06T01:34:54.021Z,12.00
2019-04-06T01:37:23.620Z,12.00
2019-04-06T01:39:53.023Z,11.90
2019-04-06T01:42:22.613Z,11.90
2019-04-06T01:44:52.530Z,11.90
2019-04-06T01:47:33.028Z,11.90
2019-04-06T01:50:02.577Z,11.90
2019-04-06T01:52:32.476Z,11.90
2019-04-06T01:55:01.772Z,11.90
2019-04-06T01:57:31.361Z,11.80
2019-04-06T02:00:00.910Z,11.80
2019-04-06T02:02:32.981Z,11.80
2019-04-06T02:05:02.525Z,11.80
2019-04-06T02:07:32.119Z,11.70
2019-04-06T02:10:01.751Z,11.70
2019-04-06T02:12:31.570Z,11.70
2019-04-06T02:15:01.106Z,11.60
2019-04-06T02:17:30.595Z,11.60
2019-04-06T02:20:00.205Z,11.60
2019-04-06T02:22:29.546Z,11.50
2019-04-06T02:24:58.944Z,11.50
2019-04-06T02:27:28.436Z,11.40
2019-04-06T02:30:15.996Z,11.40
2019-04-06T02:33:10.432Z,11.40
2019-04-06T02:35:46.463Z,11.40
2019-04-06T02:38:40.471Z,11.30
2019-04-06T02:41:31.705Z,11.30
2019-04-06T02:44:01.139Z,11.20
2019-04-06T02:46:31.414Z,11.20
2019-04-06T02:49:01.193Z,11.10
2019-04-06T02:51:30.797Z,11.10
2019-04-06T02:54:00.173Z,11.10
2019-04-06T02:56:44.282Z,11.10
2019-04-06T02:59:01.213Z,11.10
2019-04-06T03:01:30.798Z,11.10
2019-04-06T03:04:00.739Z,11.10
2019-04-06T03:06:30.375Z,11.00
2019-04-06T03:08:59.927Z,11.00
2019-04-06T03:11:29.469Z,11.00
2019-04-06T03:13:58.989Z,10.90
2019-04-06T03:16:28.240Z,10.90
2019-04-06T03:18:57.529Z,10.90
2019-04-06T03:21:27.103Z,10.80
2019-04-06T03:23:56.403Z,10.80
2019-04-06T03:26:26.316Z,10.70
2019-04-06T03:28:55.867Z,10.70
2019-04-06T03:31:27.999Z,10.60
2019-04-06T03:33:57.877Z,10.50
2019-04-06T03:36:27.260Z,10.50
2019-04-06T03:38:56.874Z,10.50
2019-04-06T03:41:26.327Z,10.50
2019-04-06T03:43:55.688Z,10.40
2019-04-06T03:46:25.050Z,10.40
2019-04-06T03:48:54.527Z,10.30
2019-04-06T03:51:23.751Z,10.30
2019-04-06T03:53:53.240Z,10.30
2019-04-06T03:56:22.524Z,10.20
2019-04-06T03:58:52.348Z,10.10
2019-04-06T04:01:22.170Z,10.10
2019-04-06T04:03:51.582Z,10.10
2019-04-06T04:06:21.382Z,10.10
2019-04-06T04:08:53.121Z,10.00
2019-04-06T04:11:22.503Z,10.00
2019-04-06T04:13:52.004Z,10.00
2019-04-06T04:16:23.572Z,9.90
2019-04-06T04:18:52.973Z,9.90
2019-04-06T04:21:22.255Z,9.80
2019-04-06T04:23:51.902Z,9.90
2019-04-06T04:26:23.394Z,9.80
2019-04-06T04:28:52.743Z,9.80
2019-04-06T04:31:22.225Z,9.80
2019-04-06T04:33:51.572Z,9.80
2019-04-06T04:36:20.934Z,9.80
2019-04-06T04:38:50.402Z,9.80
2019-04-06T04:41:19.945Z,9.90
2019-04-06T04:43:49.280Z,9.90
2019-04-06T04:46:18.729Z,9.90
2019-04-06T04:48:48.032Z,9.90
2019-04-06T04:51:17.265Z,9.90
2019-04-06T04:53:47.248Z,9.90
2019-04-06T04:56:16.617Z,9.90
2019-04-06T04:58:46.159Z,9.90
2019-04-06T05:01:15.407Z,9.90
2019-04-06T05:03:44.741Z,10.00
2019-04-06T05:06:14.172Z,10.00
2019-04-06T05:08:43.726Z,10.00
2019-04-06T05:11:13.145Z,10.00
2019-04-06T05:13:42.656Z,10.00
2019-04-06T05:16:13.229Z,10.00
2019-04-06T05:18:43.595Z,10.00
2019-04-06T05:21:12.423Z,10.10
2019-04-06T05:23:41.680Z,10.10
2019-04-06T05:26:11.340Z,10.10
2019-04-06T05:28:40.667Z,10.20
2019-04-06T05:31:10.007Z,10.20
2019-04-06T05:33:39.428Z,10.20
2019-04-06T05:36:08.886Z,10.20
2019-04-06T05:38:38.278Z,10.30
2019-04-06T05:41:07.658Z,10.30
2019-04-06T05:43:36.822Z,10.30
2019-04-06T05:46:05.953Z,10.40
2019-04-06T05:48:36.985Z,10.40
2019-04-06T05:51:09.731Z,10.50
2019-04-06T05:53:38.961Z,10.50
2019-04-06T05:56:08.143Z,10.50
2019-04-06T05:58:39.929Z,10.60
2019-04-06T06:01:10.262Z,10.60
2019-04-06T06:03:41.107Z,10.70
2019-04-06T06:06:12.497Z,10.70
2019-04-06T06:08:41.314Z,10.80
2019-04-06T06:11:10.778Z,10.80
2019-04-06T06:13:40.012Z,10.90
2019-04-06T06:16:11.521Z,11.00
2019-04-06T06:18:40.371Z,11.00
2019-04-06T06:21:09.715Z,11.10
2019-04-06T06:23:39.021Z,11.10
2019-04-06T06:26:08.362Z,11.20
2019-04-06T06:28:37.603Z,11.20
2019-04-06T06:31:06.832Z,11.30
2019-04-06T06:33:36.320Z,11.30
2019-04-06T06:36:05.578Z,11.40
2019-04-06T06:38:35.483Z,11.50
2019-04-06T06:41:04.747Z,11.50
2019-04-06T06:43:34.142Z,11.60
2019-04-06T06:46:03.859Z,11.70
2019-04-06T06:48:33.099Z,11.70
2019-04-06T06:51:02.355Z,11.70
2019-04-06T06:53:31.980Z,11.80
2019-04-06T06:56:01.360Z,11.80
2019-04-06T06:58:30.855Z,11.90
2019-04-06T07:01:00.117Z,12.00
2019-04-06T07:03:29.511Z,12.00
2019-04-06T07:05:58.963Z,12.10
2019-04-06T07:08:28.190Z,12.20
2019-04-06T07:10:57.469Z,12.20
2019-04-06T07:13:27.845Z,12.30
2019-04-06T07:15:57.131Z,12.30
2019-04-06T07:18:26.385Z,12.50
2019-04-06T07:20:55.728Z,12.50
2019-04-06T07:23:24.939Z,12.60
2019-04-06T07:25:58.531Z,12.60
2019-04-06T07:28:36.390Z,12.70
2019-04-06T07:30:56.370Z,12.80
2019-04-06T07:33:25.755Z,12.90
2019-04-06T07:35:54.875Z,12.90
2019-04-06T07:38:24.065Z,13.00
2019-04-06T07:40:53.266Z,13.10
2019-04-06T07:43:22.505Z,13.10
2019-04-06T07:45:51.865Z,13.20
2019-04-06T07:48:21.537Z,13.20
2019-04-06T07:50:50.732Z,13.30
2019-04-06T07:53:19.923Z,13.40
2019-04-06T07:55:48.978Z,13.50
2019-04-06T07:58:18.137Z,13.50
2019-04-06T08:00:51.038Z,13.60
2019-04-06T08:03:20.367Z,13.70
2019-04-06T08:05:49.790Z,13.70
2019-04-06T08:08:19.584Z,13.80
2019-04-06T08:10:49.200Z,13.90
2019-04-06T08:13:18.418Z,13.90
2019-04-06T08:15:47.899Z,14.00
2019-04-06T08:18:17.033Z,14.00
2019-04-06T08:20:46.273Z,14.10
2019-04-06T08:23:15.622Z,14.10
2019-04-06T08:25:45.043Z,14.20
2019-04-06T08:28:14.325Z,14.30
2019-04-06T08:30:45.990Z,14.30
2019-04-06T08:33:14.832Z,14.40
2019-04-06T08:35:43.916Z,14.50
2019-04-06T08:38:13.353Z,14.60
2019-04-06T08:40:42.897Z,14.70
2019-04-06T08:43:12.611Z,14.80
2019-04-06T08:45:41.891Z,15.00
2019-04-06T08:48:11.319Z,15.10
2019-04-06T08:50:40.841Z,15.20
2019-04-06T08:53:10.220Z,15.30
2019-04-06T08:55:39.354Z,15.40
2019-04-06T08:58:08.861Z,15.60
2019-04-06T09:00:41.229Z,15.70
2019-04-06T09:03:12.769Z,15.80
2019-04-06T09:05:42.029Z,15.90
2019-04-06T09:08:11.375Z,16.10
2019-04-06T09:10:40.633Z,16.20
2019-04-06T09:13:10.154Z,16.30
2019-04-06T09:15:39.484Z,16.30
2019-04-06T09:18:08.724Z,16.30
2019-04-06T09:20:37.919Z,16.40
2019-04-06T09:23:07.095Z,16.40
2019-04-06T09:25:36.521Z,16.60
2019-04-06T09:28:07.601Z,16.70
2019-04-06T09:30:37.202Z,16.90
2019-04-06T09:33:06.559Z,17.00
2019-04-06T09:35:35.847Z,17.10
2019-04-06T09:38:05.250Z,17.10
2019-04-06T09:40:36.900Z,17.20
2019-04-06T09:43:06.408Z,17.30
2019-04-06T09:45:54.796Z,17.40
2019-04-06T09:48:48.753Z,17.40
2019-04-06T09:51:29.220Z,17.40
2019-04-06T09:54:26.853Z,17.40
2019-04-06T09:57:04.308Z,17.50
2019-04-06T09:59:51.784Z,17.60
2019-04-06T10:02:40.070Z,17.70
2019-04-06T10:05:27.943Z,17.80
2019-04-06T10:08:25.146Z,17.80
2019-04-06T10:11:19.434Z,17.80
2019-04-06T10:14:11.038Z,17.90
2019-04-06T10:16:58.249Z,18.00
2019-04-06T10:19:54.283Z,18.10
2019-04-06T10:22:42.048Z,18.20
2019-04-06T10:25:42.582Z,18.40
2019-04-06T10:28:42.943Z,18.50
2019-04-06T10:31:29.782Z,18.60
2019-04-06T10:34:36.190Z,18.70
2019-04-06T10:37:24.876Z,18.70
2019-04-06T10:40:04.239Z,18.80
2019-04-06T10:42:52.804Z,18.80
2019-04-06T10:45:28.106Z,18.80
2019-04-06T10:48:23.323Z,18.90
2019-04-06T10:51:04.200Z,18.90
2019-04-06T10:53:58.676Z,18.90
2019-04-06T10:56:42.428Z,19.00
2019-04-06T10:59:42.989Z,19.00
2019-04-06T11:02:30.163Z,19.00
2019-04-06T11:05:11.333Z,19.00
2019-04-06T11:07:55.121Z,19.10
2019-04-06T11:10:42.184Z,19.10
2019-04-06T11:13:20.749Z,19.10
2019-04-06T11:16:10.311Z,19.20
2019-04-06T11:19:10.730Z,19.20
2019-04-06T11:22:09.893Z,19.30
2019-04-06T11:25:06.301Z,19.40
2019-04-06T11:27:57.369Z,19.40
2019-04-06T11:30:48.880Z,19.50
2019-04-06T11:33:55.434Z,19.50
2019-04-06T11:36:45.258Z,19.60
2019-04-06T11:39:39.514Z,19.70
2019-04-06T11:42:31.446Z,19.70
2019-04-06T11:45:05.568Z,19.80
2019-04-06T11:47:52.558Z,19.80
2019-04-06T11:50:32.556Z,19.90
2019-04-06T11:53:12.583Z,19.90
2019-04-06T11:56:00.890Z,20.00
2019-04-06T11:58:35.925Z,20.10
2019-04-06T12:01:11.077Z,20.00
2019-04-06T12:03:53.203Z,20.00
2019-04-06T12:06:41.015Z,20.10
2019-04-06T12:09:38.349Z,20.10
2019-04-06T12:12:35.414Z,20.20
2019-04-06T12:15:23.143Z,20.30
2019-04-06T12:18:02.485Z,20.30
2019-04-06T12:20:43.965Z,20.40
2019-04-06T12:23:33.448Z,20.40
2019-04-06T12:26:21.141Z,20.40
2019-04-06T12:29:10.677Z,20.40
2019-04-06T12:32:08.410Z,20.50
2019-04-06T12:34:51.233Z,20.50
2019-04-06T12:37:39.782Z,20.50
2019-04-06T12:40:34.393Z,20.60
2019-04-06T12:43:10.648Z,20.60
2019-04-06T12:45:52.674Z,20.70
2019-04-06T12:48:39.805Z,20.70
2019-04-06T12:51:20.661Z,20.80
2019-04-06T12:53:58.938Z,20.80
2019-04-06T12:56:47.278Z,20.90
2019-04-06T12:59:30.025Z,21.00
2019-04-06T13:02:21.270Z,21.10
2019-04-06T13:05:13.064Z,21.20
2019-04-06T13:07:59.824Z,21.30
2019-04-06T13:10:46.830Z,21.40
2019-04-06T13:13:31.905Z,21.50
2019-04-06T13:16:20.997Z,21.50
2019-04-06T13:19:08.166Z,21.50
2019-04-06T13:21:56.456Z,21.70
2019-04-06T13:24:34.755Z,21.90
2019-04-06T13:28:02.152Z,22.00
2019-04-06T13:30:39.514Z,22.10
2019-04-06T13:33:43.592Z,22.20
2019-04-06T13:36:30.561Z,22.10
2019-04-06T13:39:25.589Z,22.10
2019-04-06T13:42:26.672Z,22.20
2019-04-06T13:45:02.912Z,22.40
2019-04-06T13:47:47.007Z,22.50
2019-04-06T13:50:30.446Z,22.60
2019-04-06T13:53:34.025Z,22.70
2019-04-06T13:56:22.336Z,22.70
2019-04-06T13:58:56.745Z,22.70
2019-04-06T14:01:40.594Z,22.70
2019-04-06T14:04:28.053Z,22.90
2019-04-06T14:07:22.525Z,22.90
2019-04-06T14:10:13.864Z,22.70
2019-04-06T14:12:53.480Z,22.50
2019-04-06T14:15:31.363Z,22.50
2019-04-06T14:18:18.707Z,22.60
2019-04-06T14:21:05.603Z,22.50
2019-04-06T14:23:49.007Z,22.30
2019-04-06T14:26:38.229Z,22.10
2019-04-06T14:29:13.766Z,22.40
2019-04-06T14:31:55.087Z,22.40
2019-04-06T14:34:54.247Z,22.50
2019-04-06T14:37:57.864Z,22.80
2019-04-06T14:40:43.622Z,23.10
2019-04-06T14:43:30.540Z,23.20
2019-04-06T14:46:15.609Z,23.30
2019-04-06T14:49:13.582Z,23.30
2019-04-06T14:51:47.047Z,23.20
2019-04-06T14:54:33.528Z,23.30
2019-04-06T14:57:24.817Z,23.20
2019-04-06T15:00:11.992Z,23.20
2019-04-06T15:02:58.253Z,23.00
2019-04-06T15:05:51.993Z,23.00
2019-04-06T15:08:38.455Z,23.00
2019-04-06T15:11:18.327Z,22.90
2019-04-06T15:14:04.480Z,22.90
2019-04-06T15:16:52.887Z,22.90
2019-04-06T15:19:46.992Z,22.90
2019-04-06T15:22:27.546Z,22.80
2019-04-06T15:25:08.303Z,22.70
2019-04-06T15:27:52.349Z,22.70
2019-04-06T15:30:43.836Z,22.50
2019-04-06T15:33:38.063Z,22.50
2019-04-06T15:36:32.959Z,22.60
2019-04-06T15:39:11.270Z,22.50
2019-04-06T15:41:58.721Z,22.40
2019-04-06T15:44:45.027Z,22.40
2019-04-06T15:47:36.743Z,22.50
2019-04-06T15:50:17.049Z,22.50
2019-04-06T15:53:10.952Z,22.40
2019-04-06T15:55:53.687Z,22.40
2019-04-06T15:58:42.247Z,22.30
2019-04-06T16:01:39.723Z,22.30
2019-04-06T16:04:23.074Z,22.20
2019-04-06T16:07:14.243Z,22.30
2019-04-06T16:10:06.296Z,21.90
2019-04-06T16:12:51.684Z,21.80
2019-04-06T16:15:26.216Z,21.80
2019-04-06T16:18:13.317Z,21.70
2019-04-06T16:20:48.607Z,21.70
2019-04-06T16:23:39.700Z,21.70
2019-04-06T16:26:31.431Z,21.90
2019-04-06T16:29:22.714Z,21.80
2019-04-06T16:32:31.009Z,21.90
2019-04-06T16:35:18.987Z,21.70
2019-04-06T16:38:02.171Z,21.70
2019-04-06T16:40:53.902Z,21.50
2019-04-06T16:43:44.734Z,21.40
2019-04-06T16:46:27.873Z,21.50
2019-04-06T16:49:07.848Z,21.50
2019-04-06T16:51:42.269Z,21.40
2019-04-06T16:54:25.185Z,21.30
2019-04-06T16:57:08.401Z,21.20
2019-04-06T16:59:45.566Z,21.10
2019-04-06T17:02:52.336Z,21.00
2019-04-06T17:05:46.111Z,21.00
2019-04-06T17:08:37.236Z,21.20
2019-04-06T17:11:19.861Z,21.20
2019-04-06T17:14:16.264Z,21.20
2019-04-06T17:17:04.167Z,21.20
2019-04-06T17:19:55.173Z,21.20
2019-04-06T17:22:46.509Z,21.20
2019-04-06T17:25:27.261Z,21.10
2019-04-06T17:28:11.711Z,21.00
2019-04-06T17:30:59.041Z,21.00
2019-04-06T17:33:37.838Z,20.80
2019-04-06T17:36:18.015Z,20.70
2019-04-06T17:39:08.565Z,20.60
2019-04-06T17:41:48.896Z,20.50
2019-04-06T17:44:48.130Z,20.40
2019-04-06T17:47:31.341Z,20.30
2019-04-06T17:50:16.493Z,20.10
2019-04-06T17:53:07.524Z,20.00
2019-04-06T17:56:04.829Z,19.90
2019-04-06T17:59:18.059Z,19.80
2019-04-06T18:02:01.088Z,19.70
2019-04-06T18:04:59.727Z,19.50
2019-04-06T18:07:40.918Z,19.40
2019-04-06T18:10:32.394Z,19.30
2019-04-06T18:13:19.770Z,19.10
2019-04-06T18:15:49.563Z,19.00
2019-04-06T18:18:35.222Z,18.90
2019-04-06T18:21:26.023Z,18.80
2019-04-06T18:23:55.404Z,18.70
2019-04-06T18:26:24.929Z,18.60
2019-04-06T18:28:55.639Z,18.50
2019-04-06T18:31:42.496Z,18.40
2019-04-06T18:34:12.625Z,18.30
2019-04-06T18:37:10.483Z,18.20
2019-04-06T18:39:40.322Z,18.20
2019-04-06T18:42:11.841Z,18.10
2019-04-06T18:44:41.182Z,18.00
2019-04-06T18:47:11.081Z,18.00
2019-04-06T18:49:40.839Z,17.90
2019-04-06T18:52:10.073Z,17.80
2019-04-06T18:54:39.631Z,17.70
2019-04-06T18:57:09.145Z,17.70
2019-04-06T18:59:38.476Z,17.60
2019-04-06T19:02:07.773Z,17.60
2019-04-06T19:04:37.374Z,17.50
2019-04-06T19:07:07.048Z,17.40
2019-04-06T19:09:36.209Z,17.40
2019-04-06T19:12:05.625Z,17.30
2019-04-06T19:14:34.816Z,17.20
2019-04-06T19:17:09.985Z,17.20
2019-04-06T19:19:39.641Z,17.10
2019-04-06T19:22:09.369Z,17.10
2019-04-06T19:24:38.833Z,17.10
2019-04-06T19:27:08.854Z,17.00
2019-04-06T19:29:38.297Z,16.90
2019-04-06T19:32:07.587Z,16.90
2019-04-06T19:34:37.198Z,16.90
2019-04-06T19:37:08.761Z,16.80
2019-04-06T19:39:37.650Z,16.80
2019-04-06T19:42:09.439Z,16.70
2019-04-06T19:44:38.666Z,16.70
2019-04-06T19:47:10.005Z,16.60
2019-04-06T19:49:41.419Z,16.60
2019-04-06T19:52:10.761Z,16.60
2019-04-06T19:54:42.779Z,16.60
2019-04-06T19:57:12.385Z,16.50
2019-04-06T19:59:41.609Z,16.50
2019-04-06T20:02:11.019Z,16.50
2019-04-06T20:04:51.219Z,16.40
2019-04-06T20:07:20.702Z,16.40
2019-04-06T20:09:53.086Z,16.40
2019-04-06T20:12:22.790Z,16.30
2019-04-06T20:14:54.789Z,16.30
2019-04-06T20:17:25.123Z,16.20
2019-04-06T20:19:55.294Z,16.20
2019-04-06T20:22:25.363Z,16.20
2019-04-06T20:24:54.581Z,16.20
2019-04-06T20:27:26.589Z,16.10
2019-04-06T20:29:56.606Z,16.10
2019-04-06T20:32:26.592Z,16.10
2019-04-06T20:34:56.273Z,16.00
2019-04-06T20:37:26.323Z,16.00
2019-04-06T20:39:54.962Z,16.00
2019-04-06T20:42:27.532Z,15.90
2019-04-06T20:44:59.156Z,15.90
2019-04-06T20:47:29.285Z,15.90
2019-04-06T20:50:01.832Z,15.80
2019-04-06T20:52:31.691Z,15.80
2019-04-06T20:55:00.185Z,15.70
2019-04-06T20:57:29.797Z,15.70
2019-04-06T20:59:59.533Z,15.60
2019-04-06T21:02:29.359Z,15.60
2019-04-06T21:05:00.902Z,15.60
2019-04-06T21:07:29.910Z,15.50
2019-04-06T21:09:59.411Z,15.50
2019-04-06T21:12:28.738Z,15.40
2019-04-06T21:14:58.821Z,15.40
2019-04-06T21:17:31.010Z,15.40
2019-04-06T21:20:01.643Z,15.30
2019-04-06T21:22:31.302Z,15.30
2019-04-06T21:25:00.772Z,15.30
2019-04-06T21:27:31.436Z,15.20
2019-04-06T21:30:01.017Z,15.20
2019-04-06T21:32:30.432Z,15.20
2019-04-06T21:35:04.619Z,15.10
2019-04-06T21:37:35.952Z,15.10
2019-04-06T21:40:06.637Z,15.00
2019-04-06T21:42:36.807Z,15.00
2019-04-06T21:45:07.690Z,15.00
2019-04-06T21:47:38.692Z,15.00
2019-04-06T21:50:08.732Z,14.90
2019-04-06T21:52:38.820Z,14.90
2019-04-06T21:55:08.138Z,14.90
2019-04-06T21:57:38.801Z,14.80
2019-04-06T22:00:51.403Z,14.80
2019-04-06T22:03:21.073Z,14.70
2019-04-06T22:05:50.553Z,14.70
2019-04-06T22:08:20.318Z,14.70
2019-04-06T22:10:50.162Z,14.60
2019-04-06T22:13:19.617Z,14.60
2019-04-06T22:15:48.950Z,14.60
2019-04-06T22:18:18.305Z,14.50
2019-04-06T22:20:47.498Z,14.50
2019-04-06T22:23:16.746Z,14.50
2019-04-06T22:25:47.976Z,14.40
2019-04-06T22:28:17.767Z,14.40
2019-04-06T22:30:47.022Z,14.30
2019-04-06T22:33:16.378Z,14.30
2019-04-06T22:35:48.947Z,14.20
2019-04-06T22:38:18.539Z,14.20
2019-04-06T22:40:48.549Z,14.10
2019-04-06T22:43:17.379Z,14.00
2019-04-06T22:45:48.069Z,14.00
2019-04-06T22:48:19.696Z,13.90
2019-04-06T22:50:50.982Z,13.90
2019-04-06T22:53:22.585Z,13.90
2019-04-06T22:55:52.279Z,13.80
2019-04-06T22:58:22.397Z,13.80
2019-04-06T23:01:00.088Z,13.70
2019-04-06T23:03:48.679Z,13.70
2019-04-06T23:06:25.461Z,13.60
2019-04-06T23:08:56.753Z,13.60
2019-04-06T23:11:27.562Z,13.60
2019-04-06T23:14:00.835Z,13.50
2019-04-06T23:16:30.198Z,13.50
2019-04-06T23:19:00.293Z,13.50
2019-04-06T23:21:29.801Z,13.40
2019-04-06T23:23:59.570Z,13.40
2019-04-06T23:26:31.643Z,13.40
2019-04-06T23:29:01.778Z,13.30
2019-04-06T23:31:30.693Z,13.30
2019-04-06T23:34:01.135Z,13.30
2019-04-06T23:36:31.216Z,13.20
2019-04-06T23:39:01.074Z,13.20
2019-04-06T23:41:31.208Z,13.10
2019-04-06T23:44:01.528Z,13.10
2019-04-06T23:46:30.856Z,13.00
2019-04-06T23:49:02.297Z,13.00
2019-04-06T23:51:32.083Z,13.00
2019-04-06T23:54:01.948Z,12.90
2019-04-06T23:56:31.440Z,12.90
2019-04-06T23:59:01.647Z,12.80
